Time;durP1;ratioP1;P1;durP2;ratioP2;P2;SDS_P1;SDS_P2;PMS_P1;PMS_P2;Temp;Humidity;BMP_temperature;BMP_pressure;BME280_temperature;BME280_humidity;BME280_pressure;Samples;Min_cycle;Max_cycle;Signal;HPM_P1;HPM_P2
2022/12/23 00:01:15;;;;;;;537.67;223.57;;;;;;;;;;4986076;28;20184;-52
2022/12/23 00:03:42;;;;;;;539.77;227.17;;;;;;;;;;4976733;28;20223;-51
2022/12/23 00:06:09;;;;;;;520.83;218.63;;;;;;;;;;4978214;28;20342;-52
2022/12/23 00:08:35;;;;;;;407.53;173.97;;;;;;;;;;4986675;28;20719;-52
2022/12/23 00:11:03;;;;;;;404.23;171.07;;;;;;;;;;4975654;28;20220;-52
2022/12/23 00:16:14;;;;;;;528.40;223.93;;;;;;;;;;4997827;28;20660;-52
2022/12/23 00:18:41;;;;;;;561.20;249.90;;;;;;;;;;4987352;28;20225;-52
2022/12/23 00:21:08;;;;;;;415.57;175.13;;;;;;;;;;4986065;28;20224;-51
2022/12/23 00:23:38;;;;;;;501.77;212.77;;;;;;;;;;4979579;28;20301;-52
2022/12/23 00:26:04;;;;;;;390.87;166.17;;;;;;;;;;4961925;28;20672;-52
2022/12/23 00:28:30;;;;;;;521.33;216.23;;;;;;;;;;4988278;28;20284;-51
2022/12/23 00:31:01;;;;;;;572.47;252.07;;;;;;;;;;4977674;28;20514;-52
2022/12/23 00:33:29;;;;;;;588.43;248.40;;;;;;;;;;4981630;28;20267;-52
2022/12/23 00:35:55;;;;;;;562.40;234.30;;;;;;;;;;4978786;28;20784;-53
2022/12/23 00:43:54;;;;;;;576.27;242.60;;;;;;;;;;4969662;28;21047;-54
2022/12/23 00:46:21;;;;;;;465.57;201.07;;;;;;;;;;4977549;28;20193;-53
2022/12/23 00:51:31;;;;;;;557.80;236.90;;;;;;;;;;4977673;28;20299;-52
2022/12/23 00:53:57;;;;;;;603.40;261.00;;;;;;;;;;4975927;28;20673;-51
2022/12/23 00:56:23;;;;;;;631.40;273.77;;;;;;;;;;4973790;28;20220;-51
2022/12/23 00:58:50;;;;;;;491.80;212.67;;;;;;;;;;4971853;28;20224;-51
2022/12/23 01:06:45;;;;;;;577.13;253.07;;;;;;;;;;4971331;28;20223;-51
2022/12/23 01:09:11;;;;;;;457.50;194.70;;;;;;;;;;4980621;28;20228;-53
2022/12/23 01:11:37;;;;;;;553.47;235.17;;;;;;;;;;4982989;28;20633;-52
2022/12/23 01:14:04;;;;;;;372.67;159.50;;;;;;;;;;4987419;28;20256;-52
2022/12/23 01:16:30;;;;;;;594.53;251.33;;;;;;;;;;4968167;28;20195;-52
2022/12/23 01:18:57;;;;;;;551.00;232.67;;;;;;;;;;4975934;28;20185;-53
2022/12/23 01:21:23;;;;;;;589.23;244.80;;;;;;;;;;4970863;28;20227;-52
2022/12/23 01:23:49;;;;;;;508.43;228.13;;;;;;;;;;4974250;28;20701;-52
2022/12/23 01:26:15;;;;;;;506.63;213.30;;;;;;;;;;4974863;28;20264;-52
2022/12/23 01:28:41;;;;;;;566.30;239.03;;;;;;;;;;4980489;28;20203;-51
2022/12/23 01:31:09;;;;;;;528.47;223.83;;;;;;;;;;4968228;28;21497;-52
2022/12/23 01:33:35;;;;;;;594.63;251.33;;;;;;;;;;4988675;28;20270;-51
2022/12/23 01:36:03;;;;;;;419.10;175.73;;;;;;;;;;4982778;28;20216;-51
2022/12/23 01:38:29;;;;;;;441.97;187.43;;;;;;;;;;4988059;28;20228;-50
2022/12/23 01:40:56;;;;;;;362.30;153.53;;;;;;;;;;4993260;28;22441;-51
2022/12/23 01:43:22;;;;;;;537.77;224.03;;;;;;;;;;4974717;28;20514;-52
2022/12/23 01:45:49;;;;;;;579.50;253.93;;;;;;;;;;4968357;28;20231;-52
2022/12/23 01:48:18;;;;;;;471.60;202.67;;;;;;;;;;4979637;28;20847;-53
2022/12/23 01:50:53;;;;;;;631.77;267.80;;;;;;;;;;4966217;28;20213;-52
2022/12/23 01:53:21;;;;;;;452.20;196.17;;;;;;;;;;4977703;28;20323;-52
2022/12/23 01:56:26;;;;;;;483.37;203.93;;;;;;;;;;4980449;28;20186;-51
2022/12/23 01:58:54;;;;;;;529.33;227.10;;;;;;;;;;4878077;29;20232;-52
2022/12/23 02:04:08;;;;;;;470.20;201.20;;;;;;;;;;4948020;28;20247;-52
2022/12/23 02:09:22;;;;;;;607.70;268.20;;;;;;;;;;4980783;28;20786;-52
2022/12/23 02:11:48;;;;;;;441.40;189.27;;;;;;;;;;4979011;28;20224;-52
2022/12/23 02:17:37;;;;;;;458.37;190.60;;;;;;;;;;4977998;28;20271;-52
2022/12/23 02:20:18;;;;;;;404.53;173.50;;;;;;;;;;4964638;28;20221;-52
2022/12/23 02:22:44;;;;;;;458.80;192.27;;;;;;;;;;4991695;28;20383;-52
2022/12/23 02:25:31;;;;;;;501.10;214.90;;;;;;;;;;4982634;28;20232;-52
2022/12/23 02:28:06;;;;;;;587.47;252.83;;;;;;;;;;4989021;28;20212;-53
2022/12/23 02:30:44;;;;;;;501.30;214.57;;;;;;;;;;4988770;28;20215;-51
2022/12/23 02:33:10;;;;;;;417.27;175.20;;;;;;;;;;4979536;28;20224;-51
2022/12/23 02:35:57;;;;;;;453.80;194.07;;;;;;;;;;4975802;28;20284;-51
2022/12/23 02:38:31;;;;;;;469.23;198.10;;;;;;;;;;4980564;28;20232;-51
2022/12/23 02:41:13;;;;;;;593.67;253.77;;;;;;;;;;4986938;28;20542;-52
2022/12/23 02:43:57;;;;;;;517.87;228.47;;;;;;;;;;4973542;28;20426;-53
2022/12/23 02:46:27;;;;;;;455.73;199.53;;;;;;;;;;4991139;28;20786;-53
2022/12/23 02:48:59;;;;;;;614.70;261.93;;;;;;;;;;4985507;28;20479;-53
2022/12/23 02:51:28;;;;;;;447.67;192.80;;;;;;;;;;4970593;28;20585;-52
2022/12/23 02:53:57;;;;;;;474.37;210.60;;;;;;;;;;4975668;28;20234;-53
2022/12/23 02:56:25;;;;;;;448.13;196.07;;;;;;;;;;4980337;28;20224;-51
2022/12/23 02:58:54;;;;;;;608.13;263.87;;;;;;;;;;4976979;28;20396;-53
2022/12/23 03:01:20;;;;;;;565.07;244.13;;;;;;;;;;4990438;28;20247;-57
2022/12/23 03:03:47;;;;;;;408.30;171.93;;;;;;;;;;4993411;28;20528;-52
2022/12/23 03:06:17;;;;;;;579.03;251.93;;;;;;;;;;4971527;28;20466;-52
2022/12/23 03:08:44;;;;;;;529.87;227.50;;;;;;;;;;4976424;28;20220;-53
2022/12/23 03:11:12;;;;;;;588.73;253.87;;;;;;;;;;4983672;28;20250;-51
2022/12/23 03:13:48;;;;;;;498.23;219.30;;;;;;;;;;4976441;28;20214;-52
2022/12/23 03:16:26;;;;;;;500.13;220.60;;;;;;;;;;4969822;28;20648;-53
2022/12/23 03:19:01;;;;;;;617.73;262.73;;;;;;;;;;4977026;28;20243;-52
2022/12/23 03:21:47;;;;;;;618.90;266.80;;;;;;;;;;4975683;28;20420;-53
2022/12/23 03:24:23;;;;;;;423.53;178.63;;;;;;;;;;4986644;28;20630;-53
2022/12/23 03:26:57;;;;;;;587.30;243.07;;;;;;;;;;4977655;28;20246;-52
2022/12/23 03:29:29;;;;;;;437.00;185.10;;;;;;;;;;4975350;28;20219;-53
2022/12/23 03:31:57;;;;;;;500.83;213.33;;;;;;;;;;4965313;28;20235;-52
2022/12/23 03:34:25;;;;;;;490.83;208.57;;;;;;;;;;4987881;28;20345;-52
2022/12/23 03:36:53;;;;;;;622.63;281.03;;;;;;;;;;4971570;28;20388;-52
2022/12/23 03:39:20;;;;;;;504.10;210.50;;;;;;;;;;4980938;28;20231;-52
2022/12/23 03:41:50;;;;;;;603.47;267.50;;;;;;;;;;4977093;28;20220;-53
2022/12/23 03:44:19;;;;;;;575.27;251.40;;;;;;;;;;4965235;28;20584;-52
2022/12/23 03:46:56;;;;;;;554.17;239.37;;;;;;;;;;4980087;28;20542;-52
2022/12/23 03:49:33;;;;;;;591.17;245.80;;;;;;;;;;4978612;28;20407;-52
2022/12/23 03:52:01;;;;;;;624.07;269.27;;;;;;;;;;4982837;28;20219;-52
2022/12/23 03:54:31;;;;;;;517.57;219.37;;;;;;;;;;4961827;28;20326;-51
2022/12/23 03:57:00;;;;;;;535.07;232.03;;;;;;;;;;4974220;28;20224;-52
2022/12/23 03:59:28;;;;;;;548.13;233.77;;;;;;;;;;4980676;28;20796;-52
2022/12/23 04:02:03;;;;;;;451.43;191.07;;;;;;;;;;4983150;28;20280;-52
2022/12/23 04:04:36;;;;;;;626.23;266.63;;;;;;;;;;4976518;28;20625;-51
2022/12/23 04:07:25;;;;;;;407.23;170.93;;;;;;;;;;4984173;28;20218;-52
2022/12/23 04:09:52;;;;;;;364.63;158.67;;;;;;;;;;4973006;28;23199;-52
2022/12/23 04:12:18;;;;;;;444.47;194.60;;;;;;;;;;4980082;28;20283;-53
2022/12/23 04:14:46;;;;;;;579.50;251.17;;;;;;;;;;4993270;28;20228;-53
2022/12/23 04:17:12;;;;;;;439.67;192.23;;;;;;;;;;5003502;28;20316;-52
2022/12/23 04:19:39;;;;;;;577.63;249.30;;;;;;;;;;4966915;28;20527;-53
2022/12/23 04:22:05;;;;;;;457.40;195.97;;;;;;;;;;4971500;28;20738;-52
2022/12/23 04:24:31;;;;;;;580.07;242.00;;;;;;;;;;4974277;28;20232;-53
2022/12/23 04:26:57;;;;;;;573.30;248.87;;;;;;;;;;4978789;28;20269;-52
2022/12/23 04:29:24;;;;;;;640.13;284.53;;;;;;;;;;4976537;28;20228;-52
2022/12/23 04:31:50;;;;;;;431.53;189.27;;;;;;;;;;4970019;28;20260;-53
2022/12/23 04:34:16;;;;;;;481.23;207.70;;;;;;;;;;4984435;28;20283;-52
2022/12/23 04:36:42;;;;;;;537.07;230.97;;;;;;;;;;4985476;28;20236;-52
2022/12/23 04:39:09;;;;;;;438.00;191.07;;;;;;;;;;4972061;28;20319;-52
2022/12/23 04:41:35;;;;;;;564.37;242.53;;;;;;;;;;4974681;28;20621;-52
2022/12/23 04:44:01;;;;;;;503.27;219.80;;;;;;;;;;4973532;28;20261;-52
2022/12/23 04:46:27;;;;;;;475.00;207.77;;;;;;;;;;4968088;28;20361;-52
2022/12/23 04:48:53;;;;;;;483.93;208.63;;;;;;;;;;4974116;28;20331;-53
2022/12/23 04:51:19;;;;;;;512.53;228.20;;;;;;;;;;4970294;28;20224;-52
2022/12/23 04:53:45;;;;;;;527.03;238.53;;;;;;;;;;4969054;28;20263;-52
2022/12/23 04:56:12;;;;;;;526.50;234.43;;;;;;;;;;4962117;28;20485;-53
2022/12/23 04:58:38;;;;;;;567.57;250.50;;;;;;;;;;4976973;28;20378;-52
2022/12/23 05:01:08;;;;;;;462.50;197.43;;;;;;;;;;4973109;28;20689;-51
2022/12/23 05:03:34;;;;;;;433.30;188.93;;;;;;;;;;4978936;28;20279;-52
2022/12/23 05:06:00;;;;;;;383.07;164.30;;;;;;;;;;4985920;28;20216;-51
2022/12/23 05:08:26;;;;;;;455.37;194.33;;;;;;;;;;4997058;28;20220;-52
2022/12/23 05:10:52;;;;;;;575.77;247.30;;;;;;;;;;4978985;28;20224;-52
2022/12/23 05:13:18;;;;;;;614.83;270.13;;;;;;;;;;4973836;28;21088;-51
2022/12/23 05:15:45;;;;;;;485.10;210.53;;;;;;;;;;4972480;28;20216;-51
2022/12/23 05:18:12;;;;;;;557.43;242.87;;;;;;;;;;4960051;28;20221;-52
2022/12/23 05:20:38;;;;;;;415.03;176.87;;;;;;;;;;4977322;28;20212;-52
2022/12/23 05:23:04;;;;;;;493.13;222.60;;;;;;;;;;4980132;28;20427;-53
2022/12/23 05:25:32;;;;;;;547.20;236.83;;;;;;;;;;4979626;28;20188;-52
2022/12/23 05:27:58;;;;;;;394.57;171.43;;;;;;;;;;4966928;28;20455;-52
2022/12/23 05:30:24;;;;;;;576.60;246.43;;;;;;;;;;4974233;28;20221;-52
2022/12/23 05:32:54;;;;;;;482.27;212.10;;;;;;;;;;4973552;28;20690;-52
2022/12/23 05:35:21;;;;;;;557.40;243.27;;;;;;;;;;4969381;28;20712;-51
2022/12/23 05:37:47;;;;;;;540.17;239.27;;;;;;;;;;4982419;28;20289;-52
2022/12/23 05:40:13;;;;;;;602.50;259.43;;;;;;;;;;4973614;28;20177;-53
2022/12/23 05:42:40;;;;;;;423.93;184.23;;;;;;;;;;4971759;28;20239;-52
2022/12/23 05:45:06;;;;;;;598.47;264.03;;;;;;;;;;4973351;28;20871;-53
2022/12/23 05:47:32;;;;;;;508.80;228.63;;;;;;;;;;4968022;28;20424;-52
2022/12/23 05:49:58;;;;;;;463.70;197.70;;;;;;;;;;4977355;28;21932;-53
2022/12/23 05:52:25;;;;;;;601.67;260.83;;;;;;;;;;4978505;28;20366;-52
2022/12/23 05:54:51;;;;;;;544.00;242.97;;;;;;;;;;4971861;28;20224;-51
2022/12/23 05:57:17;;;;;;;599.93;266.20;;;;;;;;;;4967436;28;20331;-53
2022/12/23 05:59:44;;;;;;;365.93;160.07;;;;;;;;;;4986360;28;20223;-51
2022/12/23 06:02:10;;;;;;;505.67;225.33;;;;;;;;;;4973817;28;20220;-51
2022/12/23 06:04:36;;;;;;;538.87;247.23;;;;;;;;;;4964048;28;20204;-52
2022/12/23 06:07:02;;;;;;;673.80;304.70;;;;;;;;;;4951067;28;20185;-53
2022/12/23 06:09:28;;;;;;;704.13;312.03;;;;;;;;;;4965830;28;20661;-53
2022/12/23 06:11:54;;;;;;;448.30;188.23;;;;;;;;;;4988249;28;20231;-53
2022/12/23 06:14:20;;;;;;;709.37;294.80;;;;;;;;;;4980876;28;20291;-52
2022/12/23 06:16:47;;;;;;;566.53;245.30;;;;;;;;;;4961601;28;21552;-51
2022/12/23 06:19:13;;;;;;;647.60;282.97;;;;;;;;;;4952504;28;20329;-53
2022/12/23 06:21:39;;;;;;;651.13;295.67;;;;;;;;;;4963219;28;21161;-54
2022/12/23 06:24:05;;;;;;;597.60;266.93;;;;;;;;;;4932203;28;20475;-54
2022/12/23 06:26:32;;;;;;;783.70;357.47;;;;;;;;;;4953836;28;20212;-54
2022/12/23 06:28:59;;;;;;;506.27;221.50;;;;;;;;;;4974654;28;20315;-54
2022/12/23 06:31:25;;;;;;;730.43;327.80;;;;;;;;;;4952365;28;20235;-54
2022/12/23 06:33:51;;;;;;;620.40;273.27;;;;;;;;;;4945257;28;20234;-53
2022/12/23 06:36:17;;;;;;;687.63;307.13;;;;;;;;;;4962532;28;20223;-53
2022/12/23 06:38:43;;;;;;;588.83;265.80;;;;;;;;;;4977917;28;20228;-53
2022/12/23 06:41:09;;;;;;;646.33;291.67;;;;;;;;;;4961394;28;20279;-54
2022/12/23 06:43:35;;;;;;;552.73;247.80;;;;;;;;;;4986347;28;20675;-54
2022/12/23 06:46:01;;;;;;;595.07;271.67;;;;;;;;;;4962295;28;20864;-54
2022/12/23 06:48:28;;;;;;;699.23;307.03;;;;;;;;;;4973538;28;20532;-53
2022/12/23 06:50:54;;;;;;;418.17;183.50;;;;;;;;;;5007215;28;20278;-53
2022/12/23 06:53:20;;;;;;;571.97;248.50;;;;;;;;;;4986867;28;20223;-53
2022/12/23 06:55:46;;;;;;;515.43;231.80;;;;;;;;;;4994277;28;20188;-53
2022/12/23 06:58:12;;;;;;;661.07;289.20;;;;;;;;;;4980439;28;21152;-53
2022/12/23 07:00:38;;;;;;;576.03;247.73;;;;;;;;;;4977937;28;20688;-55
2022/12/23 07:03:04;;;;;;;694.57;303.40;;;;;;;;;;4991488;28;20221;-54
2022/12/23 07:05:30;;;;;;;704.13;312.70;;;;;;;;;;4984854;28;20801;-54
2022/12/23 07:07:57;;;;;;;561.17;240.80;;;;;;;;;;4980634;28;20564;-53
2022/12/23 07:10:23;;;;;;;699.20;301.87;;;;;;;;;;4989949;28;20616;-53
2022/12/23 07:12:49;;;;;;;651.03;287.80;;;;;;;;;;4981652;28;20615;-53
2022/12/23 07:15:15;;;;;;;554.73;241.67;;;;;;;;;;4973364;28;20232;-53
2022/12/23 07:17:41;;;;;;;588.87;255.57;;;;;;;;;;4974911;28;21902;-54
2022/12/23 07:20:08;;;;;;;576.00;248.03;;;;;;;;;;4967428;28;20312;-54
2022/12/23 07:22:34;;;;;;;652.63;287.47;;;;;;;;;;4976639;28;23710;-54
2022/12/23 07:25:00;;;;;;;795.03;346.23;;;;;;;;;;5002725;28;20270;-54
2022/12/23 07:27:30;;;;;;;645.33;283.20;;;;;;;;;;4987065;28;20324;-59
2022/12/23 07:29:56;;;;;;;535.83;224.93;;;;;;;;;;4986615;28;20663;-53
2022/12/23 07:32:22;;;;;;;701.90;313.87;;;;;;;;;;4972172;28;20221;-53
2022/12/23 07:34:48;;;;;;;634.40;269.23;;;;;;;;;;4994153;28;20685;-53
2022/12/23 07:37:15;;;;;;;684.33;292.77;;;;;;;;;;4989719;28;20340;-53
2022/12/23 07:39:41;;;;;;;520.70;221.60;;;;;;;;;;4991017;28;20356;-53
2022/12/23 07:42:07;;;;;;;705.43;295.93;;;;;;;;;;4998572;28;20295;-55
2022/12/23 07:44:33;;;;;;;630.07;267.73;;;;;;;;;;4994548;28;20635;-53
2022/12/23 07:47:00;;;;;;;647.33;271.83;;;;;;;;;;4975427;28;20212;-53
2022/12/23 07:49:26;;;;;;;561.00;243.40;;;;;;;;;;4997832;28;20831;-54
2022/12/23 07:51:52;;;;;;;644.57;272.57;;;;;;;;;;4991748;28;20327;-54
2022/12/23 07:54:18;;;;;;;752.10;335.67;;;;;;;;;;4958744;28;20224;-54
2022/12/23 07:56:44;;;;;;;715.07;307.53;;;;;;;;;;4960490;28;20381;-54
2022/12/23 07:59:10;;;;;;;622.57;269.53;;;;;;;;;;4966261;28;20959;-53
2022/12/23 08:01:36;;;;;;;528.97;228.50;;;;;;;;;;4972875;28;20177;-53
2022/12/23 08:04:03;;;;;;;732.73;326.67;;;;;;;;;;4960222;28;20208;-53
2022/12/23 08:06:29;;;;;;;634.60;276.83;;;;;;;;;;4962856;28;20241;-54
2022/12/23 08:08:55;;;;;;;898.03;389.67;;;;;;;;;;4969482;28;20323;-53
2022/12/23 08:11:21;;;;;;;483.03;212.73;;;;;;;;;;4977730;28;20228;-53
2022/12/23 08:13:48;;;;;;;469.27;205.53;;;;;;;;;;4993808;28;20203;-53
2022/12/23 08:16:14;;;;;;;554.40;248.13;;;;;;;;;;4998801;28;20252;-53
2022/12/23 08:18:41;;;;;;;584.73;246.10;;;;;;;;;;4999070;28;20305;-58
2022/12/23 08:21:10;;;;;;;680.00;302.73;;;;;;;;;;4976259;28;20312;-54
2022/12/23 08:23:36;;;;;;;541.97;230.47;;;;;;;;;;4976736;28;20725;-54
2022/12/23 08:26:05;;;;;;;693.77;304.03;;;;;;;;;;4987310;28;20679;-53
2022/12/23 08:28:31;;;;;;;549.67;246.47;;;;;;;;;;4971714;28;20641;-53
2022/12/23 08:31:23;;;;;;;760.73;338.17;;;;;;;;;;4965850;28;20197;-54
2022/12/23 08:33:51;;;;;;;670.70;289.50;;;;;;;;;;4978517;28;20273;-54
2022/12/23 08:36:19;;;;;;;659.43;287.63;;;;;;;;;;4971541;28;21883;-51
2022/12/23 08:38:45;;;;;;;522.23;203.33;;;;;;;;;;5013070;23;20274;-65
2022/12/23 08:41:12;;;;;;;592.70;236.00;;;;;;;;;;5011135;28;20352;-67
2022/12/23 08:43:39;;;;;;;579.47;229.50;;;;;;;;;;5016857;28;20222;-65
2022/12/23 08:46:05;;;;;;;557.57;225.33;;;;;;;;;;5026985;28;20195;-72
2022/12/23 08:48:32;;;;;;;472.40;186.63;;;;;;;;;;5027023;28;20220;-70
2022/12/23 08:51:02;;;;;;;394.43;166.80;;;;;;;;;;5025973;28;20277;-70
2022/12/23 08:53:28;;;;;;;444.30;182.43;;;;;;;;;;5027867;28;20242;-69
2022/12/23 08:55:54;;;;;;;385.90;162.13;;;;;;;;;;5029283;28;20239;-74
2022/12/23 08:58:20;;;;;;;541.10;215.47;;;;;;;;;;5027065;28;20208;-71
2022/12/23 09:00:46;;;;;;;587.87;239.70;;;;;;;;;;5014422;28;20201;-72
2022/12/23 09:03:12;;;;;;;576.17;225.57;;;;;;;;;;5016867;28;20595;-72
2022/12/23 09:05:39;;;;;;;499.20;199.33;;;;;;;;;;5053688;28;20269;-73
2022/12/23 09:08:06;;;;;;;410.27;166.33;;;;;;;;;;5025071;28;20536;-73
2022/12/23 09:10:32;;;;;;;490.40;196.33;;;;;;;;;;5019890;28;20347;-72
2022/12/23 09:12:58;;;;;;;371.50;154.20;;;;;;;;;;5028321;28;20226;-72
2022/12/23 09:15:24;;;;;;;619.90;245.03;;;;;;;;;;5027874;28;20657;-70
2022/12/23 09:17:50;;;;;;;489.13;200.90;;;;;;;;;;5027839;28;20211;-75
2022/12/23 09:20:23;;;;;;;530.37;224.03;;;;;;;;;;5031988;28;20204;-74
2022/12/23 09:22:49;;;;;;;432.23;171.70;;;;;;;;;;5023685;28;20566;-75
2022/12/23 09:25:15;;;;;;;489.17;198.83;;;;;;;;;;5028184;28;20184;-73
2022/12/23 09:27:44;;;;;;;713.97;287.13;;;;;;;;;;5017279;28;20222;-72
2022/12/23 09:30:10;;;;;;;481.33;184.80;;;;;;;;;;5014600;28;20223;-72
2022/12/23 09:32:37;;;;;;;424.90;176.67;;;;;;;;;;5029116;28;20219;-72
2022/12/23 09:35:03;;;;;;;556.20;215.00;;;;;;;;;;5026615;28;20227;-73
2022/12/23 09:37:29;;;;;;;567.73;229.17;;;;;;;;;;5026510;28;20213;-73
2022/12/23 09:39:55;;;;;;;587.20;235.47;;;;;;;;;;5033842;28;20211;-72
2022/12/23 09:42:33;;;;;;;587.13;238.00;;;;;;;;;;5023456;28;20725;-72
2022/12/23 09:44:59;;;;;;;548.00;220.07;;;;;;;;;;5009707;28;20219;-72
2022/12/23 09:47:27;;;;;;;508.03;214.80;;;;;;;;;;5026192;28;20211;-72
2022/12/23 09:50:00;;;;;;;439.50;181.20;;;;;;;;;;5032639;28;20697;-73
2022/12/23 09:52:45;;;;;;;496.63;196.43;;;;;;;;;;5031912;28;20187;-72
2022/12/23 09:55:11;;;;;;;568.57;228.13;;;;;;;;;;5030305;28;21039;-73
2022/12/23 09:57:55;;;;;;;422.43;178.93;;;;;;;;;;5021959;28;20787;-73
2022/12/23 10:00:21;;;;;;;520.00;211.27;;;;;;;;;;5016951;28;20461;-72
2022/12/23 10:03:07;;;;;;;389.23;165.03;;;;;;;;;;5011082;28;20212;-71
2022/12/23 10:05:39;;;;;;;688.30;291.60;;;;;;;;;;5010108;23;20345;-56
2022/12/23 10:08:08;;;;;;;838.80;323.75;;;;;;;;;;4941225;28;20219;-56
2022/12/23 10:10:34;;;;;;;544.80;212.33;;;;;;;;;;4952951;28;20665;-56
2022/12/23 10:13:03;;;;;;;612.30;259.40;;;;;;;;;;4967032;28;20483;-56
2022/12/23 10:15:31;;;;;;;715.73;295.43;;;;;;;;;;4981061;28;20790;-55
2022/12/23 10:18:00;;;;;;;538.57;202.77;;;;;;;;;;4966476;28;20318;-56
2022/12/23 10:20:35;;;;;;;687.63;262.13;;;;;;;;;;4935731;28;20213;-56
2022/12/23 10:23:01;;;;;;;619.40;263.33;;;;;;;;;;4948905;28;20774;-56
2022/12/23 10:25:27;;;;;;;612.13;261.90;;;;;;;;;;4940043;28;20185;-56
2022/12/23 10:27:53;;;;;;;584.63;253.00;;;;;;;;;;4974068;28;20391;-56
2022/12/23 10:30:21;;;;;;;746.23;324.07;;;;;;;;;;4981114;28;20687;-56
2022/12/23 10:32:56;;;;;;;596.83;248.63;;;;;;;;;;4981572;28;20216;-56
2022/12/23 10:35:41;;;;;;;559.33;234.43;;;;;;;;;;4975431;28;20212;-55
2022/12/23 10:38:32;;;;;;;555.23;228.07;;;;;;;;;;4971994;28;20283;-55
2022/12/23 10:41:17;;;;;;;538.90;217.30;;;;;;;;;;4968383;28;21736;-55
2022/12/23 10:43:58;;;;;;;563.27;233.90;;;;;;;;;;4980911;28;20603;-57
2022/12/23 10:46:27;;;;;;;620.63;265.17;;;;;;;;;;4980134;28;22430;-56
2022/12/23 10:48:59;;;;;;;570.50;240.17;;;;;;;;;;4971103;28;20355;-56
2022/12/23 10:51:29;;;;;;;575.93;240.73;;;;;;;;;;4965495;28;20232;-56
2022/12/23 10:54:09;;;;;;;604.03;256.97;;;;;;;;;;4976225;28;20244;-56
2022/12/23 10:56:36;;;;;;;613.17;256.70;;;;;;;;;;4965039;28;21565;-56
2022/12/23 10:59:06;;;;;;;509.93;205.43;;;;;;;;;;4984788;28;20220;-56
2022/12/23 11:01:33;;;;;;;643.00;272.87;;;;;;;;;;4966037;28;20538;-56
2022/12/23 11:04:00;;;;;;;560.33;232.97;;;;;;;;;;4976936;28;20208;-56
2022/12/23 11:06:26;;;;;;;577.87;237.43;;;;;;;;;;4969976;28;20964;-56
2022/12/23 11:08:53;;;;;;;692.80;298.00;;;;;;;;;;4974447;28;20324;-56
2022/12/23 11:11:39;;;;;;;500.80;222.00;;;;;;;;;;4974573;28;20828;-56
2022/12/23 11:14:05;;;;;;;520.93;222.63;;;;;;;;;;4950392;28;20695;-56
2022/12/23 11:16:31;;;;;;;614.87;257.47;;;;;;;;;;4966556;28;20927;-56
2022/12/23 11:19:02;;;;;;;559.00;227.07;;;;;;;;;;4980785;28;21651;-56
2022/12/23 11:21:28;;;;;;;650.90;266.43;;;;;;;;;;4960030;28;20217;-56
2022/12/23 11:24:17;;;;;;;655.10;270.27;;;;;;;;;;4982425;28;20228;-56
2022/12/23 11:26:45;;;;;;;575.20;234.43;;;;;;;;;;4977324;28;20672;-56
2022/12/23 11:29:20;;;;;;;570.53;229.10;;;;;;;;;;4963651;28;20289;-56
2022/12/23 11:31:46;;;;;;;670.10;281.47;;;;;;;;;;4979977;28;20529;-56
2022/12/23 11:34:16;;;;;;;618.07;253.60;;;;;;;;;;4962197;28;20270;-56
2022/12/23 11:36:45;;;;;;;640.93;268.60;;;;;;;;;;4975017;28;20741;-56
2022/12/23 11:39:32;;;;;;;730.67;308.87;;;;;;;;;;4958542;28;20213;-55
2022/12/23 11:42:18;;;;;;;585.17;250.73;;;;;;;;;;4951768;28;20330;-55
2022/12/23 11:44:48;;;;;;;572.00;227.07;;;;;;;;;;4988992;28;20750;-56
2022/12/23 11:47:24;;;;;;;604.27;243.23;;;;;;;;;;4980148;28;20245;-56
2022/12/23 11:50:01;;;;;;;632.13;253.03;;;;;;;;;;4973324;28;20241;-56
2022/12/23 11:52:29;;;;;;;623.63;248.87;;;;;;;;;;4996140;28;20633;-56
2022/12/23 11:54:56;;;;;;;440.13;178.53;;;;;;;;;;4999734;28;20697;-56
2022/12/23 11:57:46;;;;;;;571.67;236.07;;;;;;;;;;4982184;28;20310;-56
2022/12/23 12:00:20;;;;;;;560.87;233.70;;;;;;;;;;4973793;28;20209;-56
2022/12/23 12:02:48;;;;;;;539.47;222.27;;;;;;;;;;4988433;28;20472;-56
2022/12/23 12:05:34;;;;;;;607.73;247.43;;;;;;;;;;4990391;28;20247;-56
2022/12/23 12:08:02;;;;;;;704.93;290.13;;;;;;;;;;4974903;28;20236;-56
2022/12/23 12:10:30;;;;;;;605.73;248.97;;;;;;;;;;4990481;28;20287;-56
2022/12/23 12:12:58;;;;;;;658.07;273.80;;;;;;;;;;4980150;28;20217;-56
2022/12/23 12:15:42;;;;;;;584.10;234.07;;;;;;;;;;4981362;28;20295;-56
2022/12/23 12:18:11;;;;;;;538.07;220.10;;;;;;;;;;4986995;28;20328;-56
2022/12/23 12:20:40;;;;;;;532.20;217.50;;;;;;;;;;4995534;28;20216;-56
2022/12/23 12:23:11;;;;;;;694.00;289.17;;;;;;;;;;4985137;28;20285;-56
2022/12/23 12:25:57;;;;;;;647.80;266.27;;;;;;;;;;4973487;28;20342;-56
2022/12/23 12:28:25;;;;;;;595.70;249.77;;;;;;;;;;4982738;28;20216;-56
2022/12/23 12:30:59;;;;;;;479.70;193.13;;;;;;;;;;4987376;28;20909;-56
2022/12/23 12:33:30;;;;;;;678.90;279.50;;;;;;;;;;4986440;28;20771;-56
2022/12/23 12:36:06;;;;;;;605.97;250.67;;;;;;;;;;4953077;28;20221;-55
2022/12/23 12:38:33;;;;;;;700.60;293.43;;;;;;;;;;4961925;28;20228;-55
2022/12/23 12:40:59;;;;;;;589.47;246.93;;;;;;;;;;4941760;28;20256;-55
2022/12/23 12:43:30;;;;;;;713.20;300.23;;;;;;;;;;4947368;28;20587;-55
2022/12/23 12:46:08;;;;;;;678.13;282.30;;;;;;;;;;4961973;28;20670;-55
2022/12/23 12:48:47;;;;;;;706.80;294.87;;;;;;;;;;4967005;28;20298;-55
2022/12/23 12:51:20;;;;;;;628.93;264.90;;;;;;;;;;4963575;28;20307;-55
2022/12/23 12:53:54;;;;;;;654.00;283.40;;;;;;;;;;4959435;28;20339;-55
2022/12/23 12:56:32;;;;;;;654.70;274.60;;;;;;;;;;4955954;28;20221;-55
2022/12/23 12:58:58;;;;;;;622.60;262.03;;;;;;;;;;4949358;28;20468;-55
2022/12/23 13:01:30;;;;;;;597.53;253.57;;;;;;;;;;4969432;28;20279;-55
2022/12/23 13:04:09;;;;;;;655.50;271.17;;;;;;;;;;4961221;28;20232;-55
2022/12/23 13:06:35;;;;;;;648.17;271.73;;;;;;;;;;4957125;28;20908;-55
2022/12/23 13:09:04;;;;;;;641.37;271.60;;;;;;;;;;4968314;28;20216;-54
2022/12/23 13:11:36;;;;;;;705.50;307.17;;;;;;;;;;4952030;28;21292;-55
2022/12/23 13:14:17;;;;;;;709.97;303.17;;;;;;;;;;4961414;28;20274;-54
2022/12/23 13:16:52;;;;;;;599.87;248.53;;;;;;;;;;4963042;28;20200;-55
2022/12/23 13:19:24;;;;;;;638.40;265.53;;;;;;;;;;4960800;28;20179;-54
2022/12/23 13:22:12;;;;;;;766.83;326.00;;;;;;;;;;4960337;28;20217;-54
2022/12/23 13:24:49;;;;;;;625.90;262.07;;;;;;;;;;4951325;28;20223;-55
2022/12/23 13:27:34;;;;;;;589.03;244.97;;;;;;;;;;4957408;28;20319;-55
2022/12/23 13:30:16;;;;;;;619.33;262.00;;;;;;;;;;4966648;28;20777;-55
2022/12/23 13:32:41;;;;;;;727.33;315.77;;;;;;;;;;4992299;28;20318;-55
2022/12/23 13:35:43;;;;;;;668.07;277.13;;;;;;;;;;4962137;28;20924;-55
2022/12/23 13:38:27;;;;;;;718.60;307.70;;;;;;;;;;4887020;28;20238;-55
2022/12/23 13:40:53;;;;;;;643.27;270.47;;;;;;;;;;4942431;28;21037;-55
2022/12/23 13:43:21;;;;;;;609.63;259.47;;;;;;;;;;4977364;28;20533;-55
2022/12/23 13:45:47;;;;;;;617.30;256.30;;;;;;;;;;4963267;28;20285;-54
2022/12/23 13:48:16;;;;;;;609.67;258.90;;;;;;;;;;4961980;28;20216;-54
2022/12/23 13:50:49;;;;;;;836.30;360.60;;;;;;;;;;4956118;28;20295;-54
2022/12/23 13:53:19;;;;;;;705.17;298.97;;;;;;;;;;4948675;28;20988;-54
2022/12/23 13:56:04;;;;;;;768.30;327.23;;;;;;;;;;4948212;28;22457;-54
2022/12/23 13:58:31;;;;;;;670.80;278.83;;;;;;;;;;4952738;28;20219;-54
2022/12/23 14:00:58;;;;;;;564.43;235.47;;;;;;;;;;4979021;28;20192;-54
2022/12/23 14:03:25;;;;;;;649.67;276.57;;;;;;;;;;4967951;28;20282;-54
2022/12/23 14:05:52;;;;;;;667.30;279.50;;;;;;;;;;4963796;28;20245;-54
2022/12/23 14:08:18;;;;;;;796.63;302.97;;;;;;;;;;4960771;28;20402;-54
2022/12/23 14:10:54;;;;;;;638.67;232.67;;;;;;;;;;4952441;28;20259;-54
2022/12/23 14:13:22;;;;;;;691.63;271.97;;;;;;;;;;4970705;28;20223;-55
2022/12/23 14:16:07;;;;;;;588.77;230.80;;;;;;;;;;4958603;28;20212;-55
2022/12/23 14:18:52;;;;;;;754.43;288.17;;;;;;;;;;4981875;28;20451;-55
2022/12/23 14:21:25;;;;;;;736.17;286.80;;;;;;;;;;4957035;28;21246;-54
2022/12/23 14:24:00;;;;;;;563.27;213.13;;;;;;;;;;4958624;28;20228;-54
2022/12/23 14:26:26;;;;;;;779.80;292.40;;;;;;;;;;4951590;28;21404;-54
2022/12/23 14:29:08;;;;;;;744.57;282.23;;;;;;;;;;4957999;28;20220;-55
2022/12/23 14:31:37;;;;;;;793.30;307.70;;;;;;;;;;4945477;28;20193;-51